sensor_id;sensor_type;location;lat;lon;timestamp;pressure;altitude;pressure_sealevel;temperature;humidity
75747;BME280;64363;52.198;21.020;2022-10-22T00:00:32;100179.22;;;9.03;83.99
75747;BME280;64363;52.198;21.020;2022-10-22T00:03:17;100171.09;;;9.07;84.14
75747;BME280;64363;52.198;21.020;2022-10-22T00:05:43;100178.06;;;9.11;83.95
75747;BME280;64363;52.198;21.020;2022-10-22T00:08:09;100184.13;;;9.16;84.03
75747;BME280;64363;52.198;21.020;2022-10-22T00:10:37;100185.75;;;9.22;83.97
75747;BME280;64363;52.198;21.020;2022-10-22T00:13:03;100175.16;;;9.20;83.64
75747;BME280;64363;52.198;21.020;2022-10-22T00:15:29;100185.75;;;9.22;83.32
75747;BME280;64363;52.198;21.020;2022-10-22T00:17:55;100173.22;;;9.25;83.73
75747;BME280;64363;52.198;21.020;2022-10-22T00:20:20;100170.66;;;9.22;83.19
75747;BME280;64363;52.198;21.020;2022-10-22T00:22:47;100165.41;;;9.19;83.15
75747;BME280;64363;52.198;21.020;2022-10-22T00:25:13;100165.38;;;9.21;83.55
75747;BME280;64363;52.198;21.020;2022-10-22T00:27:39;100165.25;;;9.25;83.57
75747;BME280;64363;52.198;21.020;2022-10-22T00:30:05;100170.47;;;9.28;83.52
75747;BME280;64363;52.198;21.020;2022-10-22T00:32:31;100167.78;;;9.30;83.51
75747;BME280;64363;52.198;21.020;2022-10-22T00:34:57;100160.56;;;9.33;83.27
75747;BME280;64363;52.198;21.020;2022-10-22T00:37:22;100156.13;;;9.34;83.42
75747;BME280;64363;52.198;21.020;2022-10-22T00:39:48;100143.59;;;9.37;83.45
75747;BME280;64363;52.198;21.020;2022-10-22T00:42:18;100146.25;;;9.37;83.17
75747;BME280;64363;52.198;21.020;2022-10-22T00:47:39;100133.63;;;9.44;83.71
75747;BME280;64363;52.198;21.020;2022-10-22T00:50:11;100124.72;;;9.45;83.51
75747;BME280;64363;52.198;21.020;2022-10-22T00:52:38;100135.25;;;9.50;83.86
75747;BME280;64363;52.198;21.020;2022-10-22T00:55:05;100135.97;;;9.55;83.67
75747;BME280;64363;52.198;21.020;2022-10-22T00:57:32;100130.56;;;9.58;84.24
75747;BME280;64363;52.198;21.020;2022-10-22T00:59:59;100131.50;;;9.55;83.05
75747;BME280;64363;52.198;21.020;2022-10-22T01:02:25;100127.16;;;9.53;83.16
75747;BME280;64363;52.198;21.020;2022-10-22T01:04:52;100126.25;;;9.54;83.34
75747;BME280;64363;52.198;21.020;2022-10-22T01:07:20;100126.28;;;9.52;83.22
75747;BME280;64363;52.198;21.020;2022-10-22T01:10:04;100116.53;;;9.51;83.62
75747;BME280;64363;52.198;21.020;2022-10-22T01:29:17;100100.66;;;9.50;83.92
75747;BME280;64363;52.198;21.020;2022-10-22T01:32:00;100101.44;;;9.52;84.30
75747;BME280;64363;52.198;21.020;2022-10-22T01:34:27;100103.16;;;9.54;84.00
75747;BME280;64363;52.198;21.020;2022-10-22T01:36:54;100090.66;;;9.56;83.59
75747;BME280;64363;52.198;21.020;2022-10-22T01:39:22;100097.59;;;9.62;83.84
75747;BME280;64363;52.198;21.020;2022-10-22T01:41:48;100095.81;;;9.62;83.50
75747;BME280;64363;52.198;21.020;2022-10-22T01:44:25;100096.84;;;9.57;84.46
75747;BME280;64363;52.198;21.020;2022-10-22T01:47:10;100103.81;;;9.61;84.74
75747;BME280;64363;52.198;21.020;2022-10-22T01:55:38;100105.47;;;9.65;85.37
75747;BME280;64363;52.198;21.020;2022-10-22T01:58:20;100107.22;;;9.66;85.72
75747;BME280;64363;52.198;21.020;2022-10-22T02:03:51;100101.44;;;9.52;85.96
75747;BME280;64363;52.198;21.020;2022-10-22T02:06:21;100098.88;;;9.49;86.37
75747;BME280;64363;52.198;21.020;2022-10-22T02:08:49;100102.56;;;9.45;86.81
75747;BME280;64363;52.198;21.020;2022-10-22T02:11:15;100088.34;;;9.46;86.75
75747;BME280;64363;52.198;21.020;2022-10-22T02:13:46;100089.88;;;9.53;87.14
75747;BME280;64363;52.198;21.020;2022-10-22T02:16:37;100084.72;;;9.48;86.59
75747;BME280;64363;52.198;21.020;2022-10-22T02:19:32;100086.50;;;9.48;87.15
75747;BME280;64363;52.198;21.020;2022-10-22T02:21:54;100090.09;;;9.47;87.23
75747;BME280;64363;52.198;21.020;2022-10-22T02:24:20;100087.50;;;9.44;87.37
75747;BME280;64363;52.198;21.020;2022-10-22T02:29:53;100083.03;;;9.46;87.89
75747;BME280;64363;52.198;21.020;2022-10-22T02:32:25;100084.84;;;9.44;87.86
75747;BME280;64363;52.198;21.020;2022-10-22T02:34:53;100088.34;;;9.46;87.80
75747;BME280;64363;52.198;21.020;2022-10-22T02:37:20;100084.84;;;9.44;87.65
75747;BME280;64363;52.198;21.020;2022-10-22T02:39:47;100084.19;;;9.37;87.84
75747;BME280;64363;52.198;21.020;2022-10-22T02:42:13;100087.75;;;9.36;88.10
75747;BME280;64363;52.198;21.020;2022-10-22T02:44:39;100091.31;;;9.35;88.40
75747;BME280;64363;52.198;21.020;2022-10-22T02:47:04;100088.63;;;9.36;88.45
75747;BME280;64363;52.198;21.020;2022-10-22T02:49:30;100091.19;;;9.39;88.86
75747;BME280;64363;52.198;21.020;2022-10-22T02:51:56;100083.31;;;9.36;88.23
75747;BME280;64363;52.198;21.020;2022-10-22T02:54:22;100083.31;;;9.36;89.10
75747;BME280;64363;52.198;21.020;2022-10-22T02:56:47;100090.00;;;9.50;88.24
75747;BME280;64363;52.198;21.020;2022-10-22T02:59:13;100088.13;;;9.52;88.26
75747;BME280;64363;52.198;21.020;2022-10-22T03:01:38;100094.44;;;9.49;88.43
75747;BME280;64363;52.198;21.020;2022-10-22T03:04:04;100090.31;;;9.39;88.74
75747;BME280;64363;52.198;21.020;2022-10-22T03:06:31;100094.78;;;9.38;89.01
75747;BME280;64363;52.198;21.020;2022-10-22T03:08:56;100094.06;;;9.33;89.30
75747;BME280;64363;52.198;21.020;2022-10-22T03:11:22;100087.97;;;9.30;89.43
75747;BME280;64363;52.198;21.020;2022-10-22T03:13:48;100083.59;;;9.27;89.62
75747;BME280;64363;52.198;21.020;2022-10-22T03:16:14;100081.75;;;9.29;89.67
75747;BME280;64363;52.198;21.020;2022-10-22T03:18:39;100077.31;;;9.30;89.43
75747;BME280;64363;52.198;21.020;2022-10-22T03:21:36;100077.19;;;9.34;89.85
75747;BME280;64363;52.198;21.020;2022-10-22T03:24:02;100076.19;;;9.37;89.80
75747;BME280;64363;52.198;21.020;2022-10-22T03:26:30;100076.25;;;9.35;89.74
75747;BME280;64363;52.198;21.020;2022-10-22T03:28:57;100074.53;;;9.34;89.75
75747;BME280;64363;52.198;21.020;2022-10-22T03:31:22;100073.53;;;9.37;89.82
75747;BME280;64363;52.198;21.020;2022-10-22T03:33:48;100068.13;;;9.40;89.79
75747;BME280;64363;52.198;21.020;2022-10-22T03:36:14;100076.94;;;9.42;89.84
75747;BME280;64363;52.198;21.020;2022-10-22T03:38:40;100080.63;;;9.38;89.62
75747;BME280;64363;52.198;21.020;2022-10-22T03:41:06;100092.13;;;9.38;89.70
75747;BME280;64363;52.198;21.020;2022-10-22T03:43:35;100086.56;;;9.46;89.96
75747;BME280;64363;52.198;21.020;2022-10-22T03:46:01;100091.00;;;9.46;89.79
75747;BME280;64363;52.198;21.020;2022-10-22T03:48:27;100101.69;;;9.44;89.63
75747;BME280;64363;52.198;21.020;2022-10-22T03:50:53;100096.47;;;9.41;89.91
75747;BME280;64363;52.198;21.020;2022-10-22T03:53:19;100100.78;;;9.45;89.66
75747;BME280;64363;52.198;21.020;2022-10-22T03:55:45;100084.78;;;9.47;90.20
75747;BME280;64363;52.198;21.020;2022-10-22T03:58:10;100076.53;;;9.54;90.09
75747;BME280;64363;52.198;21.020;2022-10-22T04:00:36;100081.00;;;9.54;89.87
75747;BME280;64363;52.198;21.020;2022-10-22T04:03:02;100071.16;;;9.56;89.97
75747;BME280;64363;52.198;21.020;2022-10-22T04:05:28;100077.31;;;9.58;90.11
75747;BME280;64363;52.198;21.020;2022-10-22T04:07:54;100085.34;;;9.56;89.87
75747;BME280;64363;52.198;21.020;2022-10-22T04:10:19;100088.91;;;9.55;89.75
75747;BME280;64363;52.198;21.020;2022-10-22T04:12:48;100088.91;;;9.55;89.90
75747;BME280;64363;52.198;21.020;2022-10-22T04:15:14;100081.81;;;9.56;89.87
75747;BME280;64363;52.198;21.020;2022-10-22T04:17:40;100079.13;;;9.56;90.35
75747;BME280;64363;52.198;21.020;2022-10-22T04:20:06;100077.50;;;9.52;90.21
75747;BME280;64363;52.198;21.020;2022-10-22T04:22:33;100081.00;;;9.54;90.47
75747;BME280;64363;52.198;21.020;2022-10-22T04:24:59;100069.50;;;9.52;90.70
75747;BME280;64363;52.198;21.020;2022-10-22T04:27:25;100047.53;;;9.47;90.47
75747;BME280;64363;52.198;21.020;2022-10-22T04:29:53;100039.47;;;9.48;91.04
75747;BME280;64363;52.198;21.020;2022-10-22T04:32:19;100035.84;;;9.51;91.05
75747;BME280;64363;52.198;21.020;2022-10-22T04:34:44;100036.66;;;9.53;90.80
75747;BME280;64363;52.198;21.020;2022-10-22T04:37:10;100044.53;;;9.56;90.72
75747;BME280;64363;52.198;21.020;2022-10-22T04:39:36;100038.00;;;9.66;90.08
75747;BME280;64363;52.198;21.020;2022-10-22T04:42:02;100036.38;;;9.62;90.12
75747;BME280;64363;52.198;21.020;2022-10-22T04:44:28;100038.13;;;9.63;90.74
75747;BME280;64363;52.198;21.020;2022-10-22T04:46:54;100027.41;;;9.64;90.07
75747;BME280;64363;52.198;21.020;2022-10-22T04:49:19;100032.47;;;9.72;90.08
75747;BME280;64363;52.198;21.020;2022-10-22T04:51:45;100028.34;;;9.88;89.51
75747;BME280;64363;52.198;21.020;2022-10-22T04:54:11;100033.94;;;9.80;89.64
75747;BME280;64363;52.198;21.020;2022-10-22T04:56:36;100037.78;;;9.72;89.88
75747;BME280;64363;52.198;21.020;2022-10-22T04:59:07;100030.81;;;9.68;90.09
75747;BME280;64363;52.198;21.020;2022-10-22T05:01:35;100037.16;;;9.64;90.58
75747;BME280;64363;52.198;21.020;2022-10-22T05:04:03;100042.34;;;9.68;90.59
75747;BME280;64363;52.198;21.020;2022-10-22T05:06:31;100026.19;;;9.74;89.84
75747;BME280;64363;52.198;21.020;2022-10-22T05:08:59;100034.78;;;9.82;89.21
75747;BME280;64363;52.198;21.020;2022-10-22T05:11:28;100040.94;;;9.83;88.97
75747;BME280;64363;52.198;21.020;2022-10-22T05:13:56;100047.13;;;9.85;89.16
75747;BME280;64363;52.198;21.020;2022-10-22T05:16:22;100048.00;;;9.85;89.12
75747;BME280;64363;52.198;21.020;2022-10-22T05:18:48;100055.25;;;9.80;89.31
75747;BME280;64363;52.198;21.020;2022-10-22T05:21:16;100060.72;;;9.76;89.26
75747;BME280;64363;52.198;21.020;2022-10-22T05:23:43;100051.78;;;9.78;89.86
75747;BME280;64363;52.198;21.020;2022-10-22T05:26:11;100057.91;;;9.80;89.59
75747;BME280;64363;52.198;21.020;2022-10-22T05:28:37;100049.00;;;9.81;89.27
75747;BME280;64363;52.198;21.020;2022-10-22T05:31:04;100054.34;;;9.81;89.09
75747;BME280;64363;52.198;21.020;2022-10-22T05:33:31;100066.81;;;9.79;89.37
75747;BME280;64363;52.198;21.020;2022-10-22T05:35:58;100060.72;;;9.76;89.54
75747;BME280;64363;52.198;21.020;2022-10-22T05:38:24;100063.28;;;9.79;89.62
75747;BME280;64363;52.198;21.020;2022-10-22T05:41:01;100057.16;;;9.77;89.22
75747;BME280;64363;52.198;21.020;2022-10-22T05:43:27;100064.13;;;9.81;89.68
75747;BME280;64363;52.198;21.020;2022-10-22T05:45:53;100043.63;;;9.83;89.04
75747;BME280;64363;52.198;21.020;2022-10-22T05:48:19;100046.81;;;9.94;89.32
75747;BME280;64363;52.198;21.020;2022-10-22T05:50:45;100051.88;;;10.02;88.98
75747;BME280;64363;52.198;21.020;2022-10-22T05:53:18;100058.75;;;10.07;88.25
75747;BME280;64363;52.198;21.020;2022-10-22T05:55:44;100058.47;;;10.16;88.33
75747;BME280;64363;52.198;21.020;2022-10-22T05:58:11;100055.63;;;10.22;87.65
75747;BME280;64363;52.198;21.020;2022-10-22T06:00:37;100050.16;;;10.25;88.10
75747;BME280;64363;52.198;21.020;2022-10-22T06:03:03;100040.97;;;10.34;87.99
75747;BME280;64363;52.198;21.020;2022-10-22T06:05:29;100032.59;;;10.45;88.01
75747;BME280;64363;52.198;21.020;2022-10-22T06:07:56;100036.25;;;10.42;86.12
75747;BME280;64363;52.198;21.020;2022-10-22T06:10:22;100061.19;;;10.40;86.84
75747;BME280;64363;52.198;21.020;2022-10-22T06:12:48;100072.59;;;10.43;87.39
75747;BME280;64363;52.198;21.020;2022-10-22T06:15:17;100057.44;;;10.45;87.22
75747;BME280;64363;52.198;21.020;2022-10-22T06:17:43;100067.94;;;10.50;87.19
75747;BME280;64363;52.198;21.020;2022-10-22T06:20:10;100064.56;;;10.45;86.21
75747;BME280;64363;52.198;21.020;2022-10-22T06:22:36;100069.09;;;10.43;86.88
75747;BME280;64363;52.198;21.020;2022-10-22T06:25:03;100076.97;;;10.46;86.92
75747;BME280;64363;52.198;21.020;2022-10-22T06:27:30;100064.53;;;10.46;86.90
75747;BME280;64363;52.198;21.020;2022-10-22T06:29:56;100069.94;;;10.43;86.40
75747;BME280;64363;52.198;21.020;2022-10-22T06:32:21;100073.72;;;10.38;86.36
75747;BME280;64363;52.198;21.020;2022-10-22T06:34:47;100068.97;;;10.46;86.99
75747;BME280;64363;52.198;21.020;2022-10-22T06:37:14;100055.50;;;10.50;87.08
75747;BME280;64363;52.198;21.020;2022-10-22T06:39:40;100087.53;;;10.49;87.12
75747;BME280;64363;52.198;21.020;2022-10-22T06:42:06;100091.03;;;10.51;86.15
75747;BME280;64363;52.198;21.020;2022-10-22T06:44:32;100084.16;;;10.44;86.24
75747;BME280;64363;52.198;21.020;2022-10-22T06:46:58;100076.66;;;10.55;86.58
75747;BME280;64363;52.198;21.020;2022-10-22T06:49:24;100064.28;;;10.52;85.82
75747;BME280;64363;52.198;21.020;2022-10-22T06:51:51;100075.94;;;10.50;85.94
75747;BME280;64363;52.198;21.020;2022-10-22T06:54:17;100069.69;;;10.51;86.50
75747;BME280;64363;52.198;21.020;2022-10-22T06:56:43;100071.22;;;10.58;86.58
75747;BME280;64363;52.198;21.020;2022-10-22T06:59:08;100081.72;;;10.62;85.77
75747;BME280;64363;52.198;21.020;2022-10-22T07:01:35;100072.72;;;10.65;85.73
75747;BME280;64363;52.198;21.020;2022-10-22T07:04:01;100078.97;;;10.64;85.51
75747;BME280;64363;52.198;21.020;2022-10-22T07:06:28;100081.59;;;10.65;85.99
75747;BME280;64363;52.198;21.020;2022-10-22T07:08:55;100095.50;;;10.73;85.82
75747;BME280;64363;52.198;21.020;2022-10-22T07:11:26;100106.81;;;10.80;85.32
75747;BME280;64363;52.198;21.020;2022-10-22T07:13:54;100114.81;;;10.80;84.37
75747;BME280;64363;52.198;21.020;2022-10-22T07:16:20;100110.44;;;10.79;85.05
75747;BME280;64363;52.198;21.020;2022-10-22T07:18:46;100127.34;;;10.78;84.88
75747;BME280;64363;52.198;21.020;2022-10-22T07:21:13;100123.81;;;10.77;85.05
75747;BME280;64363;52.198;21.020;2022-10-22T07:23:39;100116.88;;;10.72;84.92
75747;BME280;64363;52.198;21.020;2022-10-22T07:26:05;100110.97;;;10.64;85.50
75747;BME280;64363;52.198;21.020;2022-10-22T07:28:34;100111.78;;;10.66;85.10
75747;BME280;64363;52.198;21.020;2022-10-22T07:31:00;100102.28;;;10.59;85.49
75747;BME280;64363;52.198;21.020;2022-10-22T07:33:26;100104.81;;;10.62;85.88
75747;BME280;64363;52.198;21.020;2022-10-22T07:35:59;100107.41;;;10.63;85.75
75747;BME280;64363;52.198;21.020;2022-10-22T07:38:26;100098.78;;;10.57;86.84
75747;BME280;64363;52.198;21.020;2022-10-22T07:40:52;100102.28;;;10.59;86.75
75747;BME280;64363;52.198;21.020;2022-10-22T07:43:18;100100.28;;;10.64;86.95
75747;BME280;64363;52.198;21.020;2022-10-22T07:45:43;100098.56;;;10.63;87.60
75747;BME280;64363;52.198;21.020;2022-10-22T07:48:09;100100.28;;;10.64;87.86
75747;BME280;64363;52.198;21.020;2022-10-22T07:50:35;100102.88;;;10.67;87.19
75747;BME280;64363;52.198;21.020;2022-10-22T07:53:01;100113.34;;;10.71;86.78
75747;BME280;64363;52.198;21.020;2022-10-22T07:55:26;100112.72;;;10.65;87.43
75747;BME280;64363;52.198;21.020;2022-10-22T07:57:52;100111.78;;;10.66;87.61
75747;BME280;64363;52.198;21.020;2022-10-22T08:00:18;100110.97;;;10.64;87.62
75747;BME280;64363;52.198;21.020;2022-10-22T08:02:44;100116.38;;;10.62;87.71
75747;BME280;64363;52.198;21.020;2022-10-22T08:05:10;100105.53;;;10.67;87.74
75747;BME280;64363;52.198;21.020;2022-10-22T08:07:38;100118.69;;;10.71;87.20
75747;BME280;64363;52.198;21.020;2022-10-22T08:10:05;100120.31;;;10.75;86.95
75747;BME280;64363;52.198;21.020;2022-10-22T08:12:30;100117.59;;;10.77;87.40
75747;BME280;64363;52.198;21.020;2022-10-22T08:14:56;100117.28;;;10.86;86.80
75747;BME280;64363;52.198;21.020;2022-10-22T08:17:22;100116.94;;;10.95;87.14
75747;BME280;64363;52.198;21.020;2022-10-22T08:19:47;100120.94;;;11.07;86.23
75747;BME280;64363;52.198;21.020;2022-10-22T08:22:13;100124.97;;;11.17;85.02
75747;BME280;64363;52.198;21.020;2022-10-22T08:24:39;100123.91;;;11.22;84.47
75747;BME280;64363;52.198;21.020;2022-10-22T08:27:05;100131.03;;;11.22;85.11
75747;BME280;64363;52.198;21.020;2022-10-22T08:29:30;100133.13;;;11.14;84.92
75747;BME280;64363;52.198;21.020;2022-10-22T08:31:56;100124.53;;;11.06;85.99
75747;BME280;64363;52.198;21.020;2022-10-22T08:34:22;100133.41;;;11.06;85.46
75747;BME280;64363;52.198;21.020;2022-10-22T08:36:47;100124.28;;;11.12;84.67
75747;BME280;64363;52.198;21.020;2022-10-22T08:39:13;100125.28;;;11.09;85.40
75747;BME280;64363;52.198;21.020;2022-10-22T08:44:53;100112.84;;;11.32;85.29
75747;BME280;64363;52.198;21.020;2022-10-22T08:50:22;100113.19;;;11.46;85.00
75747;BME280;64363;52.198;21.020;2022-10-22T08:52:54;100120.03;;;11.53;84.38
75747;BME280;64363;52.198;21.020;2022-10-22T08:55:23;100118.03;;;11.58;83.10
75747;BME280;64363;52.198;21.020;2022-10-22T08:57:58;100114.19;;;11.65;84.34
75747;BME280;64363;52.198;21.020;2022-10-22T09:00:56;100122.75;;;11.75;82.42
75747;BME280;64363;52.198;21.020;2022-10-22T09:03:37;100126.63;;;11.66;83.14
75747;BME280;64363;52.198;21.020;2022-10-22T09:06:24;100130.16;;;11.66;83.22
75747;BME280;64363;52.198;21.020;2022-10-22T09:08:51;100129.34;;;11.64;82.74
75747;BME280;64363;52.198;21.020;2022-10-22T09:13:55;100133.00;;;11.62;83.23
75747;BME280;64363;52.198;21.020;2022-10-22T09:16:33;100141.91;;;11.62;83.25
75747;BME280;64363;52.198;21.020;2022-10-22T09:24:37;100151.00;;;11.57;83.91
75747;BME280;64363;52.198;21.020;2022-10-22T09:27:12;100137.53;;;11.60;83.72
75747;BME280;64363;52.198;21.020;2022-10-22T09:29:38;100136.97;;;11.75;83.17
75747;BME280;64363;52.198;21.020;2022-10-22T09:32:04;100133.25;;;11.79;83.08
75747;BME280;64363;52.198;21.020;2022-10-22T09:34:30;100133.25;;;11.79;83.38
75747;BME280;64363;52.198;21.020;2022-10-22T09:37:02;100126.44;;;11.92;83.39
75747;BME280;64363;52.198;21.020;2022-10-22T09:39:32;100122.63;;;11.99;83.26
75747;BME280;64363;52.198;21.020;2022-10-22T09:41:59;100121.81;;;11.97;82.61
75747;BME280;64363;52.198;21.020;2022-10-22T09:44:25;100122.47;;;12.02;83.10
75747;BME280;64363;52.198;21.020;2022-10-22T09:46:51;100123.78;;;12.14;83.35
75747;BME280;64363;52.198;21.020;2022-10-22T09:49:29;100119.56;;;12.29;81.88
75747;BME280;64363;52.198;21.020;2022-10-22T09:51:59;100112.22;;;12.34;81.95
75747;BME280;64363;52.198;21.020;2022-10-22T09:54:35;100118.91;;;12.24;82.48
75747;BME280;64363;52.198;21.020;2022-10-22T09:59:39;100126.31;;;12.17;83.01
75747;BME280;64363;52.198;21.020;2022-10-22T10:02:12;100110.34;;;12.15;83.61
75747;BME280;64363;52.198;21.020;2022-10-22T10:04:56;100130.00;;;12.14;83.84
75747;BME280;64363;52.198;21.020;2022-10-22T10:07:29;100117.22;;;12.21;83.90
75747;BME280;64363;52.198;21.020;2022-10-22T10:09:56;100132.28;;;12.24;83.55
75747;BME280;64363;52.198;21.020;2022-10-22T10:23:47;100133.47;;;12.16;83.39
75747;BME280;64363;52.198;21.020;2022-10-22T10:26:36;100139.75;;;12.15;83.65
75747;BME280;64363;52.198;21.020;2022-10-22T10:29:49;100146.72;;;12.19;83.68
75747;BME280;64363;52.198;21.020;2022-10-22T10:35:26;100138.63;;;12.21;83.15
75747;BME280;64363;52.198;21.020;2022-10-22T10:38:09;100135.47;;;12.11;83.24
75747;BME280;64363;52.198;21.020;2022-10-22T10:49:22;100151.50;;;12.11;84.14
75747;BME280;64363;52.198;21.020;2022-10-22T10:54:39;100147.28;;;12.06;84.16
75747;BME280;64363;52.198;21.020;2022-10-22T11:08:09;100151.13;;;11.99;85.18
75747;BME280;64363;52.198;21.020;2022-10-22T11:10:39;100138.69;;;11.98;85.54
75747;BME280;64363;52.198;21.020;2022-10-22T11:13:30;100146.53;;;12.02;85.13
75747;BME280;64363;52.198;21.020;2022-10-22T11:18:51;100126.78;;;12.06;85.50
75747;BME280;64363;52.198;21.020;2022-10-22T11:21:31;100108.75;;;12.11;85.15
75747;BME280;64363;52.198;21.020;2022-10-22T11:26:53;100110.34;;;12.15;85.19
75747;BME280;64363;52.198;21.020;2022-10-22T11:29:24;100108.44;;;12.19;85.29
75747;BME280;64363;52.198;21.020;2022-10-22T11:31:53;100109.16;;;12.23;84.79
75747;BME280;64363;52.198;21.020;2022-10-22T11:36:48;100112.56;;;12.26;85.42
75747;BME280;64363;52.198;21.020;2022-10-22T11:39:42;100113.16;;;12.33;85.05
75747;BME280;64363;52.198;21.020;2022-10-22T11:42:18;100115.09;;;12.29;85.17
75747;BME280;64363;52.198;21.020;2022-10-22T11:44:45;100117.53;;;12.35;84.89
75747;BME280;64363;52.198;21.020;2022-10-22T11:47:24;100117.63;;;12.32;84.68
75747;BME280;64363;52.198;21.020;2022-10-22T11:49:57;100114.75;;;12.37;84.20
75747;BME280;64363;52.198;21.020;2022-10-22T11:52:36;100117.56;;;12.34;84.43
75747;BME280;64363;52.198;21.020;2022-10-22T11:58:34;100102.13;;;12.40;84.28
75747;BME280;64363;52.198;21.020;2022-10-22T12:08:32;100100.94;;;12.47;84.15
75747;BME280;64363;52.198;21.020;2022-10-22T12:14:03;100094.41;;;12.54;83.90
75747;BME280;64363;52.198;21.020;2022-10-22T12:16:46;100088.91;;;12.57;84.01
75747;BME280;64363;52.198;21.020;2022-10-22T12:19:25;100087.63;;;12.66;83.58
75747;BME280;64363;52.198;21.020;2022-10-22T12:22:18;100088.28;;;12.71;83.27
75747;BME280;64363;52.198;21.020;2022-10-22T12:24:53;100089.75;;;12.78;83.39
75747;BME280;64363;52.198;21.020;2022-10-22T12:29:58;100087.59;;;12.86;82.52
75747;BME280;64363;52.198;21.020;2022-10-22T12:32:38;100081.38;;;12.86;82.45
75747;BME280;64363;52.198;21.020;2022-10-22T12:35:10;100086.25;;;12.76;82.57
75747;BME280;64363;52.198;21.020;2022-10-22T12:37:36;100090.00;;;12.72;82.95
75747;BME280;64363;52.198;21.020;2022-10-22T12:40:24;100083.94;;;12.68;83.21
75747;BME280;64363;52.198;21.020;2022-10-22T12:42:56;100084.81;;;12.69;83.39
75747;BME280;64363;52.198;21.020;2022-10-22T12:45:25;100086.41;;;12.73;83.21
75747;BME280;64363;52.198;21.020;2022-10-22T12:47:56;100087.44;;;12.89;82.82
75747;BME280;64363;52.198;21.020;2022-10-22T12:50:30;100090.78;;;12.94;82.96
75747;BME280;64363;52.198;21.020;2022-10-22T12:52:57;100088.31;;;12.90;82.61
75747;BME280;64363;52.198;21.020;2022-10-22T12:55:24;100082.75;;;12.94;82.05
75747;BME280;64363;52.198;21.020;2022-10-22T12:57:51;100078.28;;;12.95;81.96
75747;BME280;64363;52.198;21.020;2022-10-22T13:00:31;100084.63;;;12.92;82.49
75747;BME280;64363;52.198;21.020;2022-10-22T13:03:00;100077.31;;;12.96;81.84
75747;BME280;64363;52.198;21.020;2022-10-22T13:05:32;100076.56;;;13.12;81.34
75747;BME280;64363;52.198;21.020;2022-10-22T13:08:06;100080.94;;;13.15;80.94
75747;BME280;64363;52.198;21.020;2022-10-22T13:10:36;100097.13;;;13.12;81.41
75747;BME280;64363;52.198;21.020;2022-10-22T13:13:02;100094.78;;;13.04;81.28
75747;BME280;64363;52.198;21.020;2022-10-22T13:18:06;100091.06;;;12.88;82.49
75747;BME280;64363;52.198;21.020;2022-10-22T13:20:52;100087.75;;;12.83;82.64
75747;BME280;64363;52.198;21.020;2022-10-22T13:23:20;100100.97;;;12.86;82.50
75747;BME280;64363;52.198;21.020;2022-10-22T13:28:24;100108.13;;;12.86;82.70
75747;BME280;64363;52.198;21.020;2022-10-22T13:30:59;100109.00;;;12.86;82.51
75747;BME280;64363;52.198;21.020;2022-10-22T13:33:29;100094.81;;;12.84;82.83
75747;BME280;64363;52.198;21.020;2022-10-22T13:35:58;100109.16;;;12.83;83.09
75747;BME280;64363;52.198;21.020;2022-10-22T13:38:25;100093.09;;;12.83;82.94
75747;BME280;64363;52.198;21.020;2022-10-22T13:40:52;100092.13;;;12.84;83.15
75747;BME280;64363;52.198;21.020;2022-10-22T13:43:18;100092.28;;;12.81;83.61
75747;BME280;64363;52.198;21.020;2022-10-22T13:45:46;100095.16;;;12.77;83.32
75747;BME280;64363;52.198;21.020;2022-10-22T13:48:17;100096.56;;;12.85;83.02
75747;BME280;64363;52.198;21.020;2022-10-22T13:50:44;100084.47;;;12.77;83.58
75747;BME280;64363;52.198;21.020;2022-10-22T13:53:19;100094.44;;;12.73;83.93
75747;BME280;64363;52.198;21.020;2022-10-22T13:55:45;100083.06;;;12.68;83.90
75747;BME280;64363;52.198;21.020;2022-10-22T13:58:20;100083.06;;;12.68;83.86
75747;BME280;64363;52.198;21.020;2022-10-22T14:00:49;100084.03;;;12.67;84.22
75747;BME280;64363;52.198;21.020;2022-10-22T14:03:19;100084.94;;;12.66;84.14
75747;BME280;64363;52.198;21.020;2022-10-22T14:05:46;100083.06;;;12.68;84.18
75747;BME280;64363;52.198;21.020;2022-10-22T14:08:14;100080.53;;;12.65;84.49
75747;BME280;64363;52.198;21.020;2022-10-22T14:10:41;100073.97;;;12.72;84.26
75747;BME280;64363;52.198;21.020;2022-10-22T14:13:14;100072.38;;;12.68;84.28
75747;BME280;64363;52.198;21.020;2022-10-22T14:15:40;100076.00;;;12.67;84.45
75747;BME280;64363;52.198;21.020;2022-10-22T14:18:07;100073.44;;;12.64;84.57
75747;BME280;64363;52.198;21.020;2022-10-22T14:20:39;100077.94;;;12.63;84.79
75747;BME280;64363;52.198;21.020;2022-10-22T14:23:14;100078.00;;;12.62;85.12
75747;BME280;64363;52.198;21.020;2022-10-22T14:25:43;100083.34;;;12.62;85.13
75747;BME280;64363;52.198;21.020;2022-10-22T14:28:12;100071.72;;;12.63;84.64
75747;BME280;64363;52.198;21.020;2022-10-22T14:30:39;100070.91;;;12.61;85.24
75747;BME280;64363;52.198;21.020;2022-10-22T14:33:13;100069.03;;;12.63;84.93
75747;BME280;64363;52.198;21.020;2022-10-22T14:35:39;100060.06;;;12.64;85.30
75747;BME280;64363;52.198;21.020;2022-10-22T14:38:04;100067.00;;;12.68;84.63
75747;BME280;64363;52.198;21.020;2022-10-22T14:40:30;100069.69;;;12.68;84.89
75747;BME280;64363;52.198;21.020;2022-10-22T14:42:56;100071.63;;;12.64;85.09
75747;BME280;64363;52.198;21.020;2022-10-22T14:45:24;100069.97;;;12.62;85.63
75747;BME280;64363;52.198;21.020;2022-10-22T14:47:50;100065.56;;;12.61;85.66